VHHFY NZWN-NZCH
Flight info
| Callsign | VHHFY |
|---|---|
| Flight time | 0h 57m |
| Altitude | 16000 |
| Route | VENAM Y804 ATBUB H159 MESIX |
| Aircraft | AEST/L-SDFGRY/S |
Departure
| Time | 2026-04-27 18:17 |
|---|---|
| Airport | Wellington International Airport (NZWN) |
Arrival
| Time | 2026-04-27 19:15 |
|---|---|
| Airport | Christchurch International Airport (NZCH) |
| Time | Latitude | Longitude | Altitude | Speed | Heading |
|---|---|---|---|---|---|
| 2026-04-27 17:20 | -41.33286 | 174.81043 | 26 ft | 0 kts | 2° |
| 2026-04-27 18:10 | -41.33251 | 174.81024 | 26 ft | 9 kts | 285° |
| 2026-04-27 18:11 | -41.33240 | 174.80920 | 23 ft | 13 kts | 272° |
| 2026-04-27 18:11 | -41.33237 | 174.80856 | 21 ft | 9 kts | 272° |
| 2026-04-27 18:11 | -41.33279 | 174.80778 | 18 ft | 14 kts | 181° |
| 2026-04-27 18:11 | -41.33395 | 174.80772 | 18 ft | 18 kts | 183° |
| 2026-04-27 18:12 | -41.33515 | 174.80762 | 17 ft | 14 kts | 189° |
| 2026-04-27 18:12 | -41.33537 | 174.80754 | 17 ft | 0 kts | 203° |
| 2026-04-27 18:16 | -41.33556 | 174.80736 | 17 ft | 11 kts | 229° |
| 2026-04-27 18:16 | -41.33528 | 174.80629 | 12 ft | 16 kts | 9° |
| 2026-04-27 18:16 | -41.33473 | 174.80637 | 13 ft | 0 kts | 1° |
| 2026-04-27 18:17 | -41.33467 | 174.80637 | 13 ft | 12 kts | 0° |
| 2026-04-27 18:17 | -41.33051 | 174.80666 | 16 ft | 95 kts | 4° |
| 2026-04-27 18:17 | -41.32374 | 174.80704 | 363 ft | 99 kts | 5° |
| 2026-04-27 18:17 | -41.31657 | 174.80820 | 797 ft | 113 kts | 8° |
| 2026-04-27 18:18 | -41.30862 | 174.80942 | 1351 ft | 119 kts | 2° |
| 2026-04-27 18:18 | -41.30028 | 174.80934 | 1952 ft | 122 kts | 357° |
| 2026-04-27 18:18 | -41.29167 | 174.80858 | 2492 ft | 129 kts | 353° |
| 2026-04-27 18:18 | -41.28254 | 174.80759 | 2998 ft | 138 kts | 1° |
| 2026-04-27 18:19 | -41.27341 | 174.81172 | 3542 ft | 145 kts | 26° |
| 2026-04-27 18:19 | -41.26469 | 174.81848 | 4104 ft | 149 kts | 29° |
| 2026-04-27 18:19 | -41.25786 | 174.82860 | 4683 ft | 153 kts | 55° |
| 2026-04-27 18:19 | -41.25165 | 174.84021 | 5268 ft | 157 kts | 51° |
| 2026-04-27 18:20 | -41.24477 | 174.85155 | 5857 ft | 161 kts | 49° |
| 2026-04-27 18:20 | -41.23739 | 174.86291 | 6442 ft | 166 kts | 49° |
| 2026-04-27 18:20 | -41.22972 | 174.87436 | 7021 ft | 171 kts | 49° |
| 2026-04-27 18:20 | -41.22159 | 174.88623 | 7603 ft | 176 kts | 48° |
| 2026-04-27 18:21 | -41.21726 | 174.90089 | 8164 ft | 178 kts | 94° |
| 2026-04-27 18:21 | -41.22215 | 174.91542 | 8745 ft | 177 kts | 139° |
| 2026-04-27 18:21 | -41.23280 | 174.92281 | 9332 ft | 179 kts | 160° |
| 2026-04-27 18:21 | -41.24432 | 174.92941 | 9916 ft | 184 kts | 158° |
| 2026-04-27 18:22 | -41.25601 | 174.93683 | 10496 ft | 189 kts | 156° |
| 2026-04-27 18:22 | -41.26833 | 174.94214 | 11047 ft | 190 kts | 185° |
| 2026-04-27 18:22 | -41.28059 | 174.93620 | 11635 ft | 191 kts | 208° |
| 2026-04-27 18:22 | -41.29189 | 174.92725 | 12090 ft | 190 kts | 212° |
| 2026-04-27 18:23 | -41.30314 | 174.91756 | 12485 ft | 193 kts | 214° |
| 2026-04-27 18:23 | -41.31424 | 174.90778 | 12878 ft | 196 kts | 214° |
| 2026-04-27 18:23 | -41.32565 | 174.89771 | 13277 ft | 198 kts | 215° |
| 2026-04-27 18:23 | -41.33707 | 174.88750 | 13670 ft | 200 kts | 215° |
| 2026-04-27 18:24 | -41.34870 | 174.87717 | 14064 ft | 201 kts | 215° |
| 2026-04-27 18:24 | -41.36029 | 174.86685 | 14450 ft | 203 kts | 216° |
| 2026-04-27 18:24 | -41.37219 | 174.85625 | 14801 ft | 207 kts | 216° |
| 2026-04-27 18:24 | -41.38434 | 174.84546 | 15153 ft | 213 kts | 216° |
| 2026-04-27 18:25 | -41.39683 | 174.83431 | 15454 ft | 221 kts | 216° |
| 2026-04-27 18:25 | -41.40972 | 174.82281 | 15732 ft | 225 kts | 216° |
| 2026-04-27 18:25 | -41.42290 | 174.81107 | 16011 ft | 229 kts | 216° |
| 2026-04-27 18:25 | -41.43631 | 174.79980 | 16280 ft | 234 kts | 208° |
| 2026-04-27 18:26 | -41.45190 | 174.79279 | 16563 ft | 237 kts | 201° |
| 2026-04-27 18:26 | -41.46790 | 174.78616 | 16753 ft | 240 kts | 201° |
| 2026-04-27 18:26 | -41.48387 | 174.77954 | 16710 ft | 245 kts | 200° |
| 2026-04-27 18:26 | -41.50030 | 174.77271 | 16624 ft | 249 kts | 200° |
| 2026-04-27 18:27 | -41.51686 | 174.76581 | 16522 ft | 250 kts | 201° |
| 2026-04-27 18:27 | -41.53352 | 174.75886 | 16418 ft | 249 kts | 201° |
| 2026-04-27 18:27 | -41.54996 | 174.75203 | 16319 ft | 248 kts | 201° |
| 2026-04-27 18:27 | -41.56650 | 174.74513 | 16218 ft | 247 kts | 201° |
| 2026-04-27 18:28 | -41.58276 | 174.73836 | 16165 ft | 245 kts | 201° |
| 2026-04-27 18:28 | -41.59891 | 174.73161 | 16169 ft | 241 kts | 201° |
| 2026-04-27 18:28 | -41.61486 | 174.72496 | 16169 ft | 238 kts | 201° |
| 2026-04-27 18:28 | -41.63055 | 174.71840 | 16170 ft | 236 kts | 201° |
| 2026-04-27 18:29 | -41.64614 | 174.71188 | 16171 ft | 234 kts | 201° |
| 2026-04-27 18:29 | -41.66179 | 174.70534 | 16173 ft | 233 kts | 201° |
| 2026-04-27 18:29 | -41.67710 | 174.69893 | 16174 ft | 232 kts | 201° |
| 2026-04-27 18:29 | -41.69258 | 174.69244 | 16180 ft | 231 kts | 201° |
| 2026-04-27 18:30 | -41.70791 | 174.68604 | 16174 ft | 231 kts | 201° |
| 2026-04-27 18:30 | -41.72306 | 174.67969 | 16169 ft | 230 kts | 201° |
| 2026-04-27 18:30 | -41.73850 | 174.67323 | 16164 ft | 230 kts | 201° |
| 2026-04-27 18:30 | -41.75367 | 174.66685 | 16166 ft | 230 kts | 201° |
| 2026-04-27 18:31 | -41.76895 | 174.66043 | 16168 ft | 230 kts | 201° |
| 2026-04-27 18:31 | -41.78433 | 174.65399 | 16165 ft | 230 kts | 201° |
| 2026-04-27 18:31 | -41.79947 | 174.64763 | 16164 ft | 230 kts | 201° |
| 2026-04-27 18:31 | -41.81490 | 174.64113 | 16161 ft | 230 kts | 201° |
| 2026-04-27 18:32 | -41.83021 | 174.63469 | 16159 ft | 230 kts | 201° |
| 2026-04-27 18:32 | -41.84440 | 174.62566 | 16164 ft | 225 kts | 217° |
| 2026-04-27 18:32 | -41.85726 | 174.61389 | 16160 ft | 225 kts | 217° |
| 2026-04-27 18:32 | -41.87006 | 174.60191 | 16161 ft | 225 kts | 217° |
| 2026-04-27 18:33 | -41.88295 | 174.58984 | 16161 ft | 225 kts | 217° |
| 2026-04-27 18:33 | -41.89587 | 174.57776 | 16162 ft | 226 kts | 217° |
| 2026-04-27 18:33 | -41.90879 | 174.56567 | 16165 ft | 228 kts | 217° |
| 2026-04-27 18:33 | -41.92189 | 174.55341 | 16161 ft | 230 kts | 217° |
| 2026-04-27 18:34 | -41.93499 | 174.54112 | 16161 ft | 231 kts | 217° |
| 2026-04-27 18:34 | -41.94821 | 174.52873 | 16160 ft | 232 kts | 217° |
| 2026-04-27 18:34 | -41.96133 | 174.51645 | 16156 ft | 233 kts | 218° |
| 2026-04-27 18:34 | -41.97465 | 174.50394 | 16154 ft | 233 kts | 218° |
| 2026-04-27 18:35 | -41.98804 | 174.49138 | 16153 ft | 233 kts | 218° |
| 2026-04-27 18:35 | -42.00124 | 174.47897 | 16153 ft | 234 kts | 218° |
| 2026-04-27 18:35 | -42.01459 | 174.46642 | 16152 ft | 235 kts | 218° |
| 2026-04-27 18:35 | -42.02811 | 174.45367 | 16149 ft | 237 kts | 218° |
| 2026-04-27 18:36 | -42.04156 | 174.44101 | 16151 ft | 237 kts | 218° |
| 2026-04-27 18:36 | -42.05513 | 174.42824 | 16151 ft | 238 kts | 218° |
| 2026-04-27 18:36 | -42.06876 | 174.41540 | 16150 ft | 239 kts | 218° |
| 2026-04-27 18:36 | -42.08223 | 174.40273 | 16146 ft | 239 kts | 218° |
| 2026-04-27 18:37 | -42.09586 | 174.38983 | 16150 ft | 239 kts | 218° |
| 2026-04-27 18:37 | -42.10946 | 174.37692 | 16149 ft | 239 kts | 218° |
| 2026-04-27 18:37 | -42.12294 | 174.36418 | 16152 ft | 239 kts | 218° |
| 2026-04-27 18:37 | -42.13658 | 174.35129 | 16149 ft | 239 kts | 218° |
| 2026-04-27 18:38 | -42.15021 | 174.33841 | 16151 ft | 239 kts | 219° |
| 2026-04-27 18:38 | -42.16376 | 174.32559 | 16153 ft | 239 kts | 219° |
| 2026-04-27 18:38 | -42.17741 | 174.31268 | 16152 ft | 239 kts | 219° |
| 2026-04-27 18:38 | -42.19100 | 174.29982 | 16152 ft | 239 kts | 219° |
| 2026-04-27 18:39 | -42.20482 | 174.28674 | 16150 ft | 239 kts | 219° |
| 2026-04-27 18:39 | -42.21841 | 174.27387 | 16151 ft | 240 kts | 219° |
| 2026-04-27 18:39 | -42.23193 | 174.26109 | 16151 ft | 240 kts | 218° |
| 2026-04-27 18:39 | -42.24575 | 174.24800 | 16151 ft | 240 kts | 218° |
| 2026-04-27 18:40 | -42.25933 | 174.23515 | 16149 ft | 241 kts | 218° |
| 2026-04-27 18:40 | -42.27313 | 174.22208 | 16146 ft | 240 kts | 218° |
| 2026-04-27 18:40 | -42.28677 | 174.20912 | 16146 ft | 240 kts | 218° |
| 2026-04-27 18:40 | -42.30029 | 174.19629 | 16148 ft | 240 kts | 218° |
| 2026-04-27 18:41 | -42.31404 | 174.18323 | 16149 ft | 240 kts | 218° |
| 2026-04-27 18:41 | -42.32758 | 174.17033 | 16148 ft | 240 kts | 218° |
| 2026-04-27 18:41 | -42.34119 | 174.15739 | 16144 ft | 240 kts | 219° |
| 2026-04-27 18:41 | -42.35490 | 174.14433 | 16145 ft | 240 kts | 219° |
| 2026-04-27 18:42 | -42.36863 | 174.13127 | 16144 ft | 240 kts | 219° |
| 2026-04-27 18:42 | -42.37753 | 174.12276 | 16140 ft | 240 kts | 219° |
| 2026-04-27 18:42 | -42.39583 | 174.10530 | 16143 ft | 240 kts | 219° |
| 2026-04-27 18:42 | -42.40945 | 174.09230 | 16140 ft | 240 kts | 219° |
| 2026-04-27 18:43 | -42.42311 | 174.07924 | 16142 ft | 240 kts | 219° |
| 2026-04-27 18:43 | -42.43673 | 174.06622 | 16141 ft | 240 kts | 219° |
| 2026-04-27 18:43 | -42.45034 | 174.05322 | 16141 ft | 240 kts | 219° |
| 2026-04-27 18:43 | -42.46403 | 174.04013 | 16136 ft | 240 kts | 219° |
| 2026-04-27 18:44 | -42.47753 | 174.02719 | 16138 ft | 240 kts | 219° |
| 2026-04-27 18:44 | -42.49128 | 174.01404 | 16138 ft | 240 kts | 219° |
| 2026-04-27 18:44 | -42.50478 | 174.00108 | 16137 ft | 240 kts | 219° |
| 2026-04-27 18:44 | -42.51840 | 173.98805 | 16135 ft | 240 kts | 219° |
| 2026-04-27 18:45 | -42.53203 | 173.97498 | 16133 ft | 241 kts | 219° |
| 2026-04-27 18:45 | -42.54580 | 173.96176 | 16133 ft | 241 kts | 219° |
| 2026-04-27 18:45 | -42.55949 | 173.94862 | 16135 ft | 241 kts | 219° |
| 2026-04-27 18:45 | -42.57316 | 173.93549 | 16133 ft | 241 kts | 219° |
| 2026-04-27 18:46 | -42.58673 | 173.92246 | 16129 ft | 242 kts | 219° |
| 2026-04-27 18:46 | -42.60058 | 173.90909 | 16005 ft | 243 kts | 219° |
| 2026-04-27 18:46 | -42.61429 | 173.89592 | 15881 ft | 242 kts | 219° |
| 2026-04-27 18:46 | -42.62792 | 173.88280 | 15757 ft | 242 kts | 219° |
| 2026-04-27 18:47 | -42.64173 | 173.86949 | 15632 ft | 242 kts | 219° |
| 2026-04-27 18:47 | -42.65552 | 173.85622 | 15510 ft | 242 kts | 219° |
| 2026-04-27 18:47 | -42.66925 | 173.84296 | 15384 ft | 241 kts | 219° |
| 2026-04-27 18:47 | -42.68283 | 173.82987 | 15259 ft | 241 kts | 219° |
| 2026-04-27 18:48 | -42.69656 | 173.81661 | 15135 ft | 241 kts | 218° |
| 2026-04-27 18:48 | -42.71014 | 173.80348 | 15013 ft | 241 kts | 218° |
| 2026-04-27 18:48 | -42.72377 | 173.79031 | 14889 ft | 240 kts | 219° |
| 2026-04-27 18:48 | -42.73741 | 173.77712 | 14766 ft | 240 kts | 218° |
| 2026-04-27 18:49 | -42.75092 | 173.76404 | 14642 ft | 240 kts | 218° |
| 2026-04-27 18:49 | -42.76460 | 173.75079 | 14519 ft | 240 kts | 218° |
| 2026-04-27 18:49 | -42.77807 | 173.73775 | 14383 ft | 239 kts | 218° |
| 2026-04-27 18:49 | -42.79166 | 173.72459 | 14256 ft | 239 kts | 218° |
| 2026-04-27 18:50 | -42.80519 | 173.71147 | 14125 ft | 239 kts | 218° |
| 2026-04-27 18:50 | -42.81865 | 173.69842 | 14004 ft | 238 kts | 218° |
| 2026-04-27 18:50 | -42.83224 | 173.68523 | 13881 ft | 238 kts | 218° |
| 2026-04-27 18:50 | -42.84569 | 173.67215 | 13748 ft | 238 kts | 218° |
| 2026-04-27 18:51 | -42.85914 | 173.65907 | 13625 ft | 238 kts | 218° |
| 2026-04-27 18:51 | -42.87259 | 173.64600 | 13512 ft | 238 kts | 218° |
| 2026-04-27 18:51 | -42.88599 | 173.63297 | 13390 ft | 238 kts | 218° |
| 2026-04-27 18:51 | -42.89958 | 173.61972 | 13223 ft | 239 kts | 218° |
| 2026-04-27 18:52 | -42.91303 | 173.60657 | 13056 ft | 240 kts | 219° |
| 2026-04-27 18:52 | -42.92392 | 173.58975 | 12871 ft | 239 kts | 234° |
| 2026-04-27 18:52 | -42.93402 | 173.57172 | 12773 ft | 236 kts | 234° |
| 2026-04-27 18:53 | -42.95375 | 173.53572 | 12412 ft | 240 kts | 234° |
| 2026-04-27 18:53 | -42.96380 | 173.51738 | 12219 ft | 241 kts | 234° |
| 2026-04-27 18:53 | -42.97384 | 173.49905 | 12020 ft | 241 kts | 234° |
| 2026-04-27 18:53 | -42.98378 | 173.48090 | 11827 ft | 242 kts | 234° |
| 2026-04-27 18:54 | -42.99386 | 173.46248 | 11626 ft | 242 kts | 234° |
| 2026-04-27 18:54 | -43.00396 | 173.44400 | 11438 ft | 242 kts | 234° |
| 2026-04-27 18:54 | -43.01405 | 173.42551 | 11236 ft | 241 kts | 234° |
| 2026-04-27 18:54 | -43.02389 | 173.40750 | 11036 ft | 237 kts | 234° |
| 2026-04-27 18:55 | -43.03366 | 173.38928 | 10840 ft | 237 kts | 237° |
| 2026-04-27 18:55 | -43.04343 | 173.37115 | 10608 ft | 237 kts | 233° |
| 2026-04-27 18:55 | -43.05333 | 173.35315 | 10372 ft | 238 kts | 233° |
| 2026-04-27 18:55 | -43.06330 | 173.33502 | 10141 ft | 238 kts | 234° |
| 2026-04-27 18:56 | -43.07318 | 173.31703 | 9925 ft | 238 kts | 235° |
| 2026-04-27 18:56 | -43.08308 | 173.29889 | 9698 ft | 237 kts | 235° |
| 2026-04-27 18:56 | -43.09280 | 173.28104 | 9478 ft | 237 kts | 235° |
| 2026-04-27 18:56 | -43.10269 | 173.26286 | 9265 ft | 237 kts | 235° |
| 2026-04-27 18:57 | -43.11306 | 173.24528 | 9018 ft | 239 kts | 225° |
| 2026-04-27 18:57 | -43.12373 | 173.22818 | 8786 ft | 234 kts | 242° |
| 2026-04-27 18:57 | -43.13266 | 173.20960 | 8556 ft | 233 kts | 237° |
| 2026-04-27 18:57 | -43.14178 | 173.19173 | 8326 ft | 231 kts | 236° |
| 2026-04-27 18:58 | -43.15113 | 173.17406 | 8098 ft | 229 kts | 236° |
| 2026-04-27 18:58 | -43.16055 | 173.15648 | 7957 ft | 225 kts | 236° |
| 2026-04-27 18:58 | -43.16987 | 173.13928 | 7982 ft | 224 kts | 236° |
| 2026-04-27 18:58 | -43.17908 | 173.12215 | 7977 ft | 224 kts | 236° |
| 2026-04-27 18:59 | -43.18825 | 173.10512 | 7977 ft | 223 kts | 236° |
| 2026-04-27 18:59 | -43.19750 | 173.08795 | 7981 ft | 223 kts | 236° |
| 2026-04-27 18:59 | -43.20666 | 173.07098 | 7980 ft | 223 kts | 236° |
| 2026-04-27 18:59 | -43.21594 | 173.05377 | 7980 ft | 224 kts | 236° |
| 2026-04-27 19:00 | -43.22524 | 173.03647 | 7954 ft | 225 kts | 235° |
| 2026-04-27 19:00 | -43.23443 | 173.01942 | 7813 ft | 223 kts | 235° |
| 2026-04-27 19:00 | -43.24368 | 173.00230 | 7679 ft | 220 kts | 236° |
| 2026-04-27 19:00 | -43.25275 | 172.98547 | 7567 ft | 219 kts | 236° |
| 2026-04-27 19:01 | -43.26259 | 172.96964 | 7384 ft | 221 kts | 226° |
| 2026-04-27 19:01 | -43.27373 | 172.95515 | 7155 ft | 223 kts | 225° |
| 2026-04-27 19:01 | -43.28507 | 172.94064 | 6925 ft | 224 kts | 226° |
| 2026-04-27 19:01 | -43.29646 | 172.92596 | 6690 ft | 225 kts | 225° |
| 2026-04-27 19:02 | -43.30787 | 172.91116 | 6469 ft | 226 kts | 225° |
| 2026-04-27 19:02 | -43.31920 | 172.89651 | 6249 ft | 226 kts | 225° |
| 2026-04-27 19:02 | -43.33066 | 172.88165 | 6016 ft | 226 kts | 225° |
| 2026-04-27 19:02 | -43.34207 | 172.86685 | 5784 ft | 226 kts | 225° |
| 2026-04-27 19:03 | -43.35350 | 172.85200 | 5549 ft | 226 kts | 225° |
| 2026-04-27 19:03 | -43.36488 | 172.83725 | 5329 ft | 227 kts | 225° |
| 2026-04-27 19:03 | -43.37638 | 172.82230 | 5090 ft | 229 kts | 225° |
| 2026-04-27 19:03 | -43.38415 | 172.81215 | 4918 ft | 226 kts | 225° |
| 2026-04-27 19:04 | -43.39917 | 172.79268 | 4579 ft | 223 kts | 225° |
| 2026-04-27 19:04 | -43.41043 | 172.77803 | 4318 ft | 221 kts | 225° |
| 2026-04-27 19:04 | -43.42155 | 172.76353 | 4059 ft | 219 kts | 224° |
| 2026-04-27 19:04 | -43.43259 | 172.74916 | 3815 ft | 218 kts | 224° |
| 2026-04-27 19:05 | -43.44349 | 172.73494 | 3572 ft | 217 kts | 224° |
| 2026-04-27 19:05 | -43.45443 | 172.72069 | 3323 ft | 216 kts | 225° |
| 2026-04-27 19:05 | -43.46542 | 172.70634 | 3071 ft | 215 kts | 225° |
| 2026-04-27 19:05 | -43.47613 | 172.69240 | 2925 ft | 211 kts | 224° |
| 2026-04-27 19:06 | -43.48676 | 172.67856 | 2942 ft | 207 kts | 225° |
| 2026-04-27 19:06 | -43.49715 | 172.66498 | 2946 ft | 206 kts | 225° |
| 2026-04-27 19:06 | -43.50755 | 172.65135 | 2944 ft | 204 kts | 225° |
| 2026-04-27 19:06 | -43.51770 | 172.63805 | 2935 ft | 202 kts | 225° |
| 2026-04-27 19:07 | -43.52793 | 172.62466 | 2934 ft | 200 kts | 225° |
| 2026-04-27 19:07 | -43.53799 | 172.61151 | 2938 ft | 199 kts | 225° |
| 2026-04-27 19:07 | -43.54807 | 172.59828 | 2938 ft | 198 kts | 225° |
| 2026-04-27 19:07 | -43.55805 | 172.58522 | 2936 ft | 199 kts | 225° |
| 2026-04-27 19:08 | -43.56804 | 172.57211 | 2949 ft | 199 kts | 225° |
| 2026-04-27 19:08 | -43.57806 | 172.55896 | 2945 ft | 199 kts | 225° |
| 2026-04-27 19:08 | -43.58816 | 172.54572 | 2945 ft | 200 kts | 225° |
| 2026-04-27 19:08 | -43.59821 | 172.53250 | 2897 ft | 203 kts | 225° |
| 2026-04-27 19:09 | -43.60861 | 172.51878 | 2668 ft | 210 kts | 225° |
| 2026-04-27 19:09 | -43.61921 | 172.50485 | 2441 ft | 213 kts | 224° |
| 2026-04-27 19:09 | -43.62982 | 172.49074 | 2211 ft | 210 kts | 227° |
| 2026-04-27 19:09 | -43.63453 | 172.47269 | 1945 ft | 200 kts | 277° |
| 2026-04-27 19:10 | -43.62970 | 172.45531 | 1725 ft | 196 kts | 304° |
| 2026-04-27 19:10 | -43.62177 | 172.44029 | 1505 ft | 194 kts | 310° |
| 2026-04-27 19:10 | -43.61358 | 172.42658 | 1542 ft | 177 kts | 311° |
| 2026-04-27 19:10 | -43.60809 | 172.41841 | 1531 ft | 168 kts | 324° |
| 2026-04-27 19:11 | -43.59412 | 172.41690 | 1550 ft | 152 kts | 20° |
| 2026-04-27 19:11 | -43.58495 | 172.42386 | 1550 ft | 147 kts | 32° |
| 2026-04-27 19:11 | -43.57677 | 172.43166 | 1589 ft | 138 kts | 33° |
| 2026-04-27 19:11 | -43.56919 | 172.43858 | 1661 ft | 127 kts | 35° |
| 2026-04-27 19:12 | -43.56265 | 172.44679 | 1587 ft | 130 kts | 43° |
| 2026-04-27 19:12 | -43.55576 | 172.45529 | 1541 ft | 130 kts | 38° |
| 2026-04-27 19:12 | -43.54905 | 172.46280 | 1511 ft | 115 kts | 37° |
| 2026-04-27 19:12 | -43.54313 | 172.46954 | 1359 ft | 108 kts | 38° |
| 2026-04-27 19:13 | -43.53738 | 172.47615 | 1153 ft | 109 kts | 38° |
| 2026-04-27 19:13 | -43.53170 | 172.48267 | 1045 ft | 104 kts | 39° |
| 2026-04-27 19:13 | -43.52620 | 172.48912 | 924 ft | 104 kts | 38° |
| 2026-04-27 19:13 | -43.52054 | 172.49541 | 758 ft | 103 kts | 38° |
| 2026-04-27 19:14 | -43.51522 | 172.50172 | 629 ft | 100 kts | 40° |
| 2026-04-27 19:14 | -43.50981 | 172.50786 | 507 ft | 100 kts | 39° |
| 2026-04-27 19:14 | -43.50447 | 172.51410 | 387 ft | 102 kts | 40° |
| 2026-04-27 19:14 | -43.49899 | 172.52051 | 217 ft | 103 kts | 40° |
| 2026-04-27 19:15 | -43.49391 | 172.52643 | 119 ft | 80 kts | 39° |
| 2026-04-27 19:15 | -43.49050 | 172.53030 | 110 ft | 42 kts | 39° |
| 2026-04-27 19:15 | -43.48844 | 172.53270 | 107 ft | 35 kts | 38° |
| 2026-04-27 19:15 | -43.48819 | 172.53403 | 106 ft | 16 kts | 130° |
| 2026-04-27 19:16 | -43.48873 | 172.53488 | 104 ft | 0 kts | 130° |
| 2026-04-27 19:16 | -43.48874 | 172.53490 | 104 ft | 2 kts | 130° |
| 2026-04-27 19:17 | -43.48907 | 172.53542 | 103 ft | 11 kts | 131° |
| 2026-04-27 19:17 | -43.48976 | 172.53654 | 101 ft | 18 kts | 130° |
| 2026-04-27 19:17 | -43.49058 | 172.53787 | 101 ft | 18 kts | 128° |
| 2026-04-27 19:17 | -43.49146 | 172.53934 | 101 ft | 14 kts | 129° |
| 2026-04-27 19:18 | -43.49204 | 172.54028 | 100 ft | 8 kts | 124° |
| 2026-04-27 19:18 | -43.49197 | 172.54077 | 100 ft | 0 kts | 45° |
| 2026-04-27 19:18 | -43.49176 | 172.54095 | 101 ft | 5 kts | 4° |
| 2026-04-27 19:18 | -43.49172 | 172.54095 | 101 ft | 0 kts | 348° |